sensor_id;sensor_type;location;lat;lon;timestamp;temperature;humidity
59961;DHT22;55902;-37.980;-63.602;2023-07-31T00:01:30;12.90;88.50
59961;DHT22;55902;-37.980;-63.602;2023-07-31T00:03:57;12.90;88.50
59961;DHT22;55902;-37.980;-63.602;2023-07-31T00:06:24;12.80;88.60
59961;DHT22;55902;-37.980;-63.602;2023-07-31T00:08:52;12.80;87.70
59961;DHT22;55902;-37.980;-63.602;2023-07-31T00:11:19;12.70;87.90
59961;DHT22;55902;-37.980;-63.602;2023-07-31T00:13:47;12.60;88.90
59961;DHT22;55902;-37.980;-63.602;2023-07-31T00:16:16;12.60;87.80
59961;DHT22;55902;-37.980;-63.602;2023-07-31T00:18:43;12.50;88.70
59961;DHT22;55902;-37.980;-63.602;2023-07-31T00:21:10;12.50;89.30
59961;DHT22;55902;-37.980;-63.602;2023-07-31T00:23:37;12.40;88.50
59961;DHT22;55902;-37.980;-63.602;2023-07-31T00:26:04;12.40;88.70
59961;DHT22;55902;-37.980;-63.602;2023-07-31T00:28:32;12.30;89.60
59961;DHT22;55902;-37.980;-63.602;2023-07-31T00:30:59;12.30;89.30
59961;DHT22;55902;-37.980;-63.602;2023-07-31T00:33:26;12.30;89.30
59961;DHT22;55902;-37.980;-63.602;2023-07-31T00:35:53;12.20;88.90
59961;DHT22;55902;-37.980;-63.602;2023-07-31T00:38:20;12.20;90.80
59961;DHT22;55902;-37.980;-63.602;2023-07-31T00:40:47;12.10;90.40
59961;DHT22;55902;-37.980;-63.602;2023-07-31T00:43:14;12.10;89.10
59961;DHT22;55902;-37.980;-63.602;2023-07-31T00:45:41;12.00;90.40
59961;DHT22;55902;-37.980;-63.602;2023-07-31T00:48:08;12.00;90.70
59961;DHT22;55902;-37.980;-63.602;2023-07-31T00:50:35;12.00;90.30
59961;DHT22;55902;-37.980;-63.602;2023-07-31T00:53:03;11.90;90.50
59961;DHT22;55902;-37.980;-63.602;2023-07-31T00:55:30;11.80;90.10
59961;DHT22;55902;-37.980;-63.602;2023-07-31T00:58:00;11.80;90.20
59961;DHT22;55902;-37.980;-63.602;2023-07-31T01:00:27;11.70;90.20
59961;DHT22;55902;-37.980;-63.602;2023-07-31T01:02:55;11.60;91.00
59961;DHT22;55902;-37.980;-63.602;2023-07-31T01:05:38;11.60;90.80
59961;DHT22;55902;-37.980;-63.602;2023-07-31T01:08:24;11.50;91.00
59961;DHT22;55902;-37.980;-63.602;2023-07-31T01:11:00;11.50;91.30
59961;DHT22;55902;-37.980;-63.602;2023-07-31T01:13:29;11.50;91.20
59961;DHT22;55902;-37.980;-63.602;2023-07-31T01:15:56;11.50;91.30
59961;DHT22;55902;-37.980;-63.602;2023-07-31T01:18:23;11.60;91.30
59961;DHT22;55902;-37.980;-63.602;2023-07-31T01:20:57;11.60;91.10
59961;DHT22;55902;-37.980;-63.602;2023-07-31T01:26:38;11.70;91.50
59961;DHT22;55902;-37.980;-63.602;2023-07-31T01:30:01;11.70;91.10
59961;DHT22;55902;-37.980;-63.602;2023-07-31T01:32:08;11.70;90.70
59961;DHT22;55902;-37.980;-63.602;2023-07-31T01:34:36;11.70;91.10
59961;DHT22;55902;-37.980;-63.602;2023-07-31T01:37:03;11.70;91.40
59961;DHT22;55902;-37.980;-63.602;2023-07-31T01:39:31;11.70;90.80
59961;DHT22;55902;-37.980;-63.602;2023-07-31T01:41:58;11.70;90.80
59961;DHT22;55902;-37.980;-63.602;2023-07-31T01:44:25;11.70;90.90
59961;DHT22;55902;-37.980;-63.602;2023-07-31T01:46:52;11.70;90.30
59961;DHT22;55902;-37.980;-63.602;2023-07-31T01:49:19;11.60;89.80
59961;DHT22;55902;-37.980;-63.602;2023-07-31T01:51:46;11.60;90.50
59961;DHT22;55902;-37.980;-63.602;2023-07-31T01:54:13;11.60;91.00
59961;DHT22;55902;-37.980;-63.602;2023-07-31T01:56:40;11.50;90.40
59961;DHT22;55902;-37.980;-63.602;2023-07-31T02:02:28;11.50;90.50
59961;DHT22;55902;-37.980;-63.602;2023-07-31T02:04:55;11.40;91.40
59961;DHT22;55902;-37.980;-63.602;2023-07-31T02:07:22;11.40;92.40
59961;DHT22;55902;-37.980;-63.602;2023-07-31T02:09:49;11.30;92.60
59961;DHT22;55902;-37.980;-63.602;2023-07-31T02:12:16;11.30;92.60
59961;DHT22;55902;-37.980;-63.602;2023-07-31T02:14:43;11.30;91.60
59961;DHT22;55902;-37.980;-63.602;2023-07-31T02:17:10;11.20;92.00
59961;DHT22;55902;-37.980;-63.602;2023-07-31T02:19:37;11.20;91.90
59961;DHT22;55902;-37.980;-63.602;2023-07-31T02:22:04;11.20;91.20
59961;DHT22;55902;-37.980;-63.602;2023-07-31T02:24:31;11.20;90.60
59961;DHT22;55902;-37.980;-63.602;2023-07-31T02:26:58;11.30;90.20
59961;DHT22;55902;-37.980;-63.602;2023-07-31T02:29:25;11.30;90.10
59961;DHT22;55902;-37.980;-63.602;2023-07-31T02:31:52;11.30;89.40
59961;DHT22;55902;-37.980;-63.602;2023-07-31T02:34:19;11.30;89.00
59961;DHT22;55902;-37.980;-63.602;2023-07-31T02:36:46;11.30;90.10
59961;DHT22;55902;-37.980;-63.602;2023-07-31T02:39:13;11.40;90.10
59961;DHT22;55902;-37.980;-63.602;2023-07-31T02:41:43;11.40;90.50
59961;DHT22;55902;-37.980;-63.602;2023-07-31T02:44:10;11.30;89.90
59961;DHT22;55902;-37.980;-63.602;2023-07-31T02:46:40;11.30;90.20
59961;DHT22;55902;-37.980;-63.602;2023-07-31T02:49:07;11.20;90.00
59961;DHT22;55902;-37.980;-63.602;2023-07-31T02:51:34;11.20;91.00
59961;DHT22;55902;-37.980;-63.602;2023-07-31T02:54:01;11.20;91.50
59961;DHT22;55902;-37.980;-63.602;2023-07-31T02:56:28;11.10;90.60
59961;DHT22;55902;-37.980;-63.602;2023-07-31T02:58:55;11.00;90.20
59961;DHT22;55902;-37.980;-63.602;2023-07-31T03:01:22;11.00;89.50
59961;DHT22;55902;-37.980;-63.602;2023-07-31T03:03:50;11.00;89.10
59961;DHT22;55902;-37.980;-63.602;2023-07-31T03:06:17;11.00;90.10
59961;DHT22;55902;-37.980;-63.602;2023-07-31T03:08:43;10.90;90.50
59961;DHT22;55902;-37.980;-63.602;2023-07-31T03:11:10;10.80;90.60
59961;DHT22;55902;-37.980;-63.602;2023-07-31T03:13:37;10.80;90.50
59961;DHT22;55902;-37.980;-63.602;2023-07-31T03:16:04;10.70;91.10
59961;DHT22;55902;-37.980;-63.602;2023-07-31T03:18:31;10.60;90.70
59961;DHT22;55902;-37.980;-63.602;2023-07-31T03:20:58;10.60;90.60
59961;DHT22;55902;-37.980;-63.602;2023-07-31T03:23:26;10.60;90.80
59961;DHT22;55902;-37.980;-63.602;2023-07-31T03:26:00;10.60;90.30
59961;DHT22;55902;-37.980;-63.602;2023-07-31T03:28:29;10.60;90.90
59961;DHT22;55902;-37.980;-63.602;2023-07-31T03:30:56;10.60;91.20
59961;DHT22;55902;-37.980;-63.602;2023-07-31T03:33:23;10.50;90.70
59961;DHT22;55902;-37.980;-63.602;2023-07-31T03:35:51;10.50;91.20
59961;DHT22;55902;-37.980;-63.602;2023-07-31T03:38:18;10.40;91.00
59961;DHT22;55902;-37.980;-63.602;2023-07-31T03:40:45;10.40;90.50
59961;DHT22;55902;-37.980;-63.602;2023-07-31T03:43:13;10.40;90.70
59961;DHT22;55902;-37.980;-63.602;2023-07-31T03:45:40;10.30;90.20
59961;DHT22;55902;-37.980;-63.602;2023-07-31T03:48:07;10.30;90.50
59961;DHT22;55902;-37.980;-63.602;2023-07-31T03:50:35;10.30;90.70
59961;DHT22;55902;-37.980;-63.602;2023-07-31T03:53:02;10.30;91.60
59961;DHT22;55902;-37.980;-63.602;2023-07-31T03:55:29;10.20;91.20
59961;DHT22;55902;-37.980;-63.602;2023-07-31T03:57:56;10.20;91.50
59961;DHT22;55902;-37.980;-63.602;2023-07-31T04:00:23;10.20;91.30
59961;DHT22;55902;-37.980;-63.602;2023-07-31T04:02:50;10.10;92.20
59961;DHT22;55902;-37.980;-63.602;2023-07-31T04:05:17;10.10;92.90
59961;DHT22;55902;-37.980;-63.602;2023-07-31T04:07:44;10.00;92.50
59961;DHT22;55902;-37.980;-63.602;2023-07-31T04:10:11;10.00;93.40
59961;DHT22;55902;-37.980;-63.602;2023-07-31T04:12:41;9.90;94.10
59961;DHT22;55902;-37.980;-63.602;2023-07-31T04:15:08;9.90;94.30
59961;DHT22;55902;-37.980;-63.602;2023-07-31T04:17:35;9.90;93.50
59961;DHT22;55902;-37.980;-63.602;2023-07-31T04:20:02;9.90;93.30
59961;DHT22;55902;-37.980;-63.602;2023-07-31T04:22:29;9.80;93.10
59961;DHT22;55902;-37.980;-63.602;2023-07-31T04:24:56;9.80;93.00
59961;DHT22;55902;-37.980;-63.602;2023-07-31T04:27:23;9.70;93.40
59961;DHT22;55902;-37.980;-63.602;2023-07-31T04:29:50;9.70;92.50
59961;DHT22;55902;-37.980;-63.602;2023-07-31T04:32:17;9.60;92.40
59961;DHT22;55902;-37.980;-63.602;2023-07-31T04:56:11;9.40;91.70
59961;DHT22;55902;-37.980;-63.602;2023-07-31T04:58:38;9.40;92.20
59961;DHT22;55902;-37.980;-63.602;2023-07-31T05:01:05;9.50;92.20
59961;DHT22;55902;-37.980;-63.602;2023-07-31T05:03:35;9.50;92.30
59961;DHT22;55902;-37.980;-63.602;2023-07-31T05:06:02;9.50;92.70
59961;DHT22;55902;-37.980;-63.602;2023-07-31T05:08:29;9.50;92.50
59961;DHT22;55902;-37.980;-63.602;2023-07-31T05:10:56;9.50;92.90
59961;DHT22;55902;-37.980;-63.602;2023-07-31T05:13:23;9.50;92.20
59961;DHT22;55902;-37.980;-63.602;2023-07-31T05:15:50;9.50;92.80
59961;DHT22;55902;-37.980;-63.602;2023-07-31T05:18:17;9.40;92.80
59961;DHT22;55902;-37.980;-63.602;2023-07-31T05:20:44;9.40;92.30
59961;DHT22;55902;-37.980;-63.602;2023-07-31T05:23:11;9.30;91.90
59961;DHT22;55902;-37.980;-63.602;2023-07-31T05:35:44;9.00;93.50
59961;DHT22;55902;-37.980;-63.602;2023-07-31T05:38:11;8.90;93.40
59961;DHT22;55902;-37.980;-63.602;2023-07-31T05:40:38;8.80;93.50
59961;DHT22;55902;-37.980;-63.602;2023-07-31T05:43:05;8.80;93.60
59961;DHT22;55902;-37.980;-63.602;2023-07-31T05:45:34;8.80;92.90
59961;DHT22;55902;-37.980;-63.602;2023-07-31T05:48:01;8.80;93.30
59961;DHT22;55902;-37.980;-63.602;2023-07-31T05:50:30;8.70;92.90
59961;DHT22;55902;-37.980;-63.602;2023-07-31T05:52:57;8.80;92.70
59961;DHT22;55902;-37.980;-63.602;2023-07-31T05:55:24;8.80;93.20
59961;DHT22;55902;-37.980;-63.602;2023-07-31T05:57:55;8.90;92.40
59961;DHT22;55902;-37.980;-63.602;2023-07-31T06:00:22;9.00;93.00
59961;DHT22;55902;-37.980;-63.602;2023-07-31T06:02:49;9.00;93.70
59961;DHT22;55902;-37.980;-63.602;2023-07-31T06:05:16;9.00;93.80
59961;DHT22;55902;-37.980;-63.602;2023-07-31T06:07:43;9.10;93.80
59961;DHT22;55902;-37.980;-63.602;2023-07-31T06:10:10;9.10;93.10
59961;DHT22;55902;-37.980;-63.602;2023-07-31T06:12:37;9.20;93.30
59961;DHT22;55902;-37.980;-63.602;2023-07-31T06:15:05;9.20;92.90
59961;DHT22;55902;-37.980;-63.602;2023-07-31T06:17:32;9.30;93.70
59961;DHT22;55902;-37.980;-63.602;2023-07-31T06:19:59;9.30;93.10
59961;DHT22;55902;-37.980;-63.602;2023-07-31T06:22:26;9.30;93.60
59961;DHT22;55902;-37.980;-63.602;2023-07-31T06:24:53;9.40;93.10
59961;DHT22;55902;-37.980;-63.602;2023-07-31T06:27:20;9.40;94.40
59961;DHT22;55902;-37.980;-63.602;2023-07-31T06:29:47;9.40;94.60
59961;DHT22;55902;-37.980;-63.602;2023-07-31T06:32:14;9.40;94.00
59961;DHT22;55902;-37.980;-63.602;2023-07-31T06:34:44;9.30;94.30
59961;DHT22;55902;-37.980;-63.602;2023-07-31T06:37:11;9.30;93.90
59961;DHT22;55902;-37.980;-63.602;2023-07-31T06:39:38;9.20;92.90
59961;DHT22;55902;-37.980;-63.602;2023-07-31T06:42:05;9.20;93.20
59961;DHT22;55902;-37.980;-63.602;2023-07-31T06:44:33;9.20;93.30
59961;DHT22;55902;-37.980;-63.602;2023-07-31T06:47:00;9.20;93.50
59961;DHT22;55902;-37.980;-63.602;2023-07-31T06:49:27;9.20;93.20
59961;DHT22;55902;-37.980;-63.602;2023-07-31T06:51:53;9.20;93.10
59961;DHT22;55902;-37.980;-63.602;2023-07-31T06:54:21;9.20;93.40
59961;DHT22;55902;-37.980;-63.602;2023-07-31T06:56:47;9.20;94.00
59961;DHT22;55902;-37.980;-63.602;2023-07-31T06:59:14;9.20;93.70
59961;DHT22;55902;-37.980;-63.602;2023-07-31T07:01:41;9.20;93.50
59961;DHT22;55902;-37.980;-63.602;2023-07-31T07:04:08;9.20;93.50
59961;DHT22;55902;-37.980;-63.602;2023-07-31T07:06:36;9.20;93.20
59961;DHT22;55902;-37.980;-63.602;2023-07-31T07:09:03;9.20;93.70
59961;DHT22;55902;-37.980;-63.602;2023-07-31T07:11:30;9.20;94.00
59961;DHT22;55902;-37.980;-63.602;2023-07-31T07:13:57;9.20;93.50
59961;DHT22;55902;-37.980;-63.602;2023-07-31T07:16:24;9.20;93.50
59961;DHT22;55902;-37.980;-63.602;2023-07-31T07:18:51;9.10;93.90
59961;DHT22;55902;-37.980;-63.602;2023-07-31T07:21:18;9.10;94.90
59961;DHT22;55902;-37.980;-63.602;2023-07-31T07:23:46;9.10;94.70
59961;DHT22;55902;-37.980;-63.602;2023-07-31T07:26:12;8.90;94.90
59961;DHT22;55902;-37.980;-63.602;2023-07-31T07:28:39;8.80;94.90
59961;DHT22;55902;-37.980;-63.602;2023-07-31T07:31:07;8.70;94.70
59961;DHT22;55902;-37.980;-63.602;2023-07-31T07:33:34;8.60;94.80
59961;DHT22;55902;-37.980;-63.602;2023-07-31T07:36:01;8.40;95.60
59961;DHT22;55902;-37.980;-63.602;2023-07-31T07:38:29;8.30;96.10
59961;DHT22;55902;-37.980;-63.602;2023-07-31T07:40:56;8.20;96.00
59961;DHT22;55902;-37.980;-63.602;2023-07-31T07:43:23;8.20;96.00
59961;DHT22;55902;-37.980;-63.602;2023-07-31T07:55:57;8.00;96.50
59961;DHT22;55902;-37.980;-63.602;2023-07-31T07:58:50;7.90;96.10
59961;DHT22;55902;-37.980;-63.602;2023-07-31T08:01:17;7.90;96.30
59961;DHT22;55902;-37.980;-63.602;2023-07-31T08:03:44;7.90;95.90
59961;DHT22;55902;-37.980;-63.602;2023-07-31T08:06:12;7.80;96.50
59961;DHT22;55902;-37.980;-63.602;2023-07-31T08:08:39;7.80;96.40
59961;DHT22;55902;-37.980;-63.602;2023-07-31T08:11:06;7.80;96.70
59961;DHT22;55902;-37.980;-63.602;2023-07-31T08:13:33;7.80;96.00
59961;DHT22;55902;-37.980;-63.602;2023-07-31T08:16:04;7.90;96.40
59961;DHT22;55902;-37.980;-63.602;2023-07-31T08:18:34;8.00;96.10
59961;DHT22;55902;-37.980;-63.602;2023-07-31T08:21:02;8.00;96.00
59961;DHT22;55902;-37.980;-63.602;2023-07-31T08:23:29;8.10;96.10
59961;DHT22;55902;-37.980;-63.602;2023-07-31T08:25:56;8.20;95.70
59961;DHT22;55902;-37.980;-63.602;2023-07-31T08:28:23;8.20;95.30
59961;DHT22;55902;-37.980;-63.602;2023-07-31T08:30:51;8.30;95.90
59961;DHT22;55902;-37.980;-63.602;2023-07-31T08:33:17;8.30;95.80
59961;DHT22;55902;-37.980;-63.602;2023-07-31T08:35:44;8.30;95.90
59961;DHT22;55902;-37.980;-63.602;2023-07-31T08:38:12;8.20;96.00
59961;DHT22;55902;-37.980;-63.602;2023-07-31T08:40:39;8.20;96.10
59961;DHT22;55902;-37.980;-63.602;2023-07-31T08:43:07;8.10;95.90
59961;DHT22;55902;-37.980;-63.602;2023-07-31T08:45:34;8.00;96.70
59961;DHT22;55902;-37.980;-63.602;2023-07-31T08:48:02;7.90;96.50
59961;DHT22;55902;-37.980;-63.602;2023-07-31T08:50:29;7.80;96.80
59961;DHT22;55902;-37.980;-63.602;2023-07-31T08:52:56;7.70;96.90
59961;DHT22;55902;-37.980;-63.602;2023-07-31T08:55:23;7.60;96.80
59961;DHT22;55902;-37.980;-63.602;2023-07-31T08:57:54;7.60;96.80
59961;DHT22;55902;-37.980;-63.602;2023-07-31T09:00:22;7.50;96.50
59961;DHT22;55902;-37.980;-63.602;2023-07-31T09:03:06;7.50;96.90
59961;DHT22;55902;-37.980;-63.602;2023-07-31T09:05:36;7.50;97.00
59961;DHT22;55902;-37.980;-63.602;2023-07-31T09:08:06;7.50;97.40
59961;DHT22;55902;-37.980;-63.602;2023-07-31T09:10:34;7.50;97.70
59961;DHT22;55902;-37.980;-63.602;2023-07-31T09:13:03;7.40;98.00
59961;DHT22;55902;-37.980;-63.602;2023-07-31T09:15:31;7.40;97.90
59961;DHT22;55902;-37.980;-63.602;2023-07-31T09:18:02;7.30;98.00
59961;DHT22;55902;-37.980;-63.602;2023-07-31T09:20:29;7.30;98.10
59961;DHT22;55902;-37.980;-63.602;2023-07-31T09:22:56;7.40;98.30
59961;DHT22;55902;-37.980;-63.602;2023-07-31T09:25:25;7.50;98.10
59961;DHT22;55902;-37.980;-63.602;2023-07-31T09:28:02;7.50;98.50
59961;DHT22;55902;-37.980;-63.602;2023-07-31T09:30:30;7.60;98.20
59961;DHT22;55902;-37.980;-63.602;2023-07-31T09:33:05;7.60;98.10
59961;DHT22;55902;-37.980;-63.602;2023-07-31T09:35:36;7.50;98.10
59961;DHT22;55902;-37.980;-63.602;2023-07-31T09:38:09;7.50;98.10
59961;DHT22;55902;-37.980;-63.602;2023-07-31T09:40:41;7.50;97.80
59961;DHT22;55902;-37.980;-63.602;2023-07-31T09:43:10;7.50;97.60
59961;DHT22;55902;-37.980;-63.602;2023-07-31T09:45:42;7.50;97.60
59961;DHT22;55902;-37.980;-63.602;2023-07-31T09:48:11;7.60;97.70
59961;DHT22;55902;-37.980;-63.602;2023-07-31T09:50:41;7.70;97.50
59961;DHT22;55902;-37.980;-63.602;2023-07-31T09:53:09;7.80;97.70
59961;DHT22;55902;-37.980;-63.602;2023-07-31T09:55:37;7.80;97.60
59961;DHT22;55902;-37.980;-63.602;2023-07-31T09:58:07;7.80;97.70
59961;DHT22;55902;-37.980;-63.602;2023-07-31T10:00:34;7.80;97.70
59961;DHT22;55902;-37.980;-63.602;2023-07-31T10:03:07;7.80;97.80
59961;DHT22;55902;-37.980;-63.602;2023-07-31T10:05:45;7.70;97.90
59961;DHT22;55902;-37.980;-63.602;2023-07-31T10:08:19;7.70;97.80
59961;DHT22;55902;-37.980;-63.602;2023-07-31T10:10:48;7.60;97.80
59961;DHT22;55902;-37.980;-63.602;2023-07-31T10:13:16;7.60;98.20
59961;DHT22;55902;-37.980;-63.602;2023-07-31T10:15:43;7.60;98.50
59961;DHT22;55902;-37.980;-63.602;2023-07-31T10:18:12;7.70;98.00
59961;DHT22;55902;-37.980;-63.602;2023-07-31T10:20:43;7.80;98.00
59961;DHT22;55902;-37.980;-63.602;2023-07-31T10:23:10;7.80;97.70
59961;DHT22;55902;-37.980;-63.602;2023-07-31T10:25:39;7.70;97.50
59961;DHT22;55902;-37.980;-63.602;2023-07-31T10:28:09;7.70;97.50
59961;DHT22;55902;-37.980;-63.602;2023-07-31T10:30:37;7.70;97.40
59961;DHT22;55902;-37.980;-63.602;2023-07-31T10:33:07;7.70;97.40
59961;DHT22;55902;-37.980;-63.602;2023-07-31T10:35:40;7.70;97.70
59961;DHT22;55902;-37.980;-63.602;2023-07-31T10:38:15;7.70;97.50
59961;DHT22;55902;-37.980;-63.602;2023-07-31T10:40:48;7.70;97.20
59961;DHT22;55902;-37.980;-63.602;2023-07-31T10:43:45;7.80;97.00
59961;DHT22;55902;-37.980;-63.602;2023-07-31T10:46:15;7.80;97.10
59961;DHT22;55902;-37.980;-63.602;2023-07-31T10:48:42;7.80;96.70
59961;DHT22;55902;-37.980;-63.602;2023-07-31T10:51:11;7.90;96.80
59961;DHT22;55902;-37.980;-63.602;2023-07-31T10:53:39;7.90;96.60
59961;DHT22;55902;-37.980;-63.602;2023-07-31T10:56:10;7.80;96.50
59961;DHT22;55902;-37.980;-63.602;2023-07-31T10:59:01;7.80;96.60
59961;DHT22;55902;-37.980;-63.602;2023-07-31T11:01:51;7.80;96.80
59961;DHT22;55902;-37.980;-63.602;2023-07-31T11:04:29;7.80;96.80
59961;DHT22;55902;-37.980;-63.602;2023-07-31T11:07:00;7.80;96.80
59961;DHT22;55902;-37.980;-63.602;2023-07-31T11:09:32;7.80;97.00
59961;DHT22;55902;-37.980;-63.602;2023-07-31T11:12:00;7.80;96.80
59961;DHT22;55902;-37.980;-63.602;2023-07-31T11:14:27;7.80;97.10
59961;DHT22;55902;-37.980;-63.602;2023-07-31T11:16:54;7.80;96.90
59961;DHT22;55902;-37.980;-63.602;2023-07-31T11:19:27;7.70;96.80
59961;DHT22;55902;-37.980;-63.602;2023-07-31T11:21:54;7.60;96.80
59961;DHT22;55902;-37.980;-63.602;2023-07-31T11:24:22;7.60;97.00
59961;DHT22;55902;-37.980;-63.602;2023-07-31T11:26:52;7.50;97.40
59961;DHT22;55902;-37.980;-63.602;2023-07-31T11:29:20;7.40;97.70
59961;DHT22;55902;-37.980;-63.602;2023-07-31T11:31:48;7.40;98.00
59961;DHT22;55902;-37.980;-63.602;2023-07-31T11:34:15;7.40;97.80
59961;DHT22;55902;-37.980;-63.602;2023-07-31T11:36:56;7.40;98.00
59961;DHT22;55902;-37.980;-63.602;2023-07-31T11:39:23;7.40;97.90
59961;DHT22;55902;-37.980;-63.602;2023-07-31T11:41:50;7.40;98.10
59961;DHT22;55902;-37.980;-63.602;2023-07-31T11:44:18;7.50;97.90
59961;DHT22;55902;-37.980;-63.602;2023-07-31T11:46:45;7.60;98.10
59961;DHT22;55902;-37.980;-63.602;2023-07-31T11:49:12;7.60;98.00
59961;DHT22;55902;-37.980;-63.602;2023-07-31T11:51:39;7.70;97.80
59961;DHT22;55902;-37.980;-63.602;2023-07-31T11:54:06;7.70;98.00
59961;DHT22;55902;-37.980;-63.602;2023-07-31T11:56:34;7.70;97.90
59961;DHT22;55902;-37.980;-63.602;2023-07-31T11:59:01;7.80;98.00
59961;DHT22;55902;-37.980;-63.602;2023-07-31T12:01:30;7.90;98.00
59961;DHT22;55902;-37.980;-63.602;2023-07-31T12:03:58;8.10;98.20
59961;DHT22;55902;-37.980;-63.602;2023-07-31T12:06:37;8.20;98.00
59961;DHT22;55902;-37.980;-63.602;2023-07-31T12:09:05;8.30;98.30
59961;DHT22;55902;-37.980;-63.602;2023-07-31T12:14:41;8.50;97.90
59961;DHT22;55902;-37.980;-63.602;2023-07-31T12:17:09;8.60;97.80
59961;DHT22;55902;-37.980;-63.602;2023-07-31T12:19:37;8.70;97.80
59961;DHT22;55902;-37.980;-63.602;2023-07-31T12:22:12;8.80;97.50
59961;DHT22;55902;-37.980;-63.602;2023-07-31T12:24:41;9.00;97.30
59961;DHT22;55902;-37.980;-63.602;2023-07-31T12:27:14;9.20;97.00
59961;DHT22;55902;-37.980;-63.602;2023-07-31T12:29:43;9.40;96.70
59961;DHT22;55902;-37.980;-63.602;2023-07-31T12:32:24;9.60;96.30
59961;DHT22;55902;-37.980;-63.602;2023-07-31T12:35:00;9.70;96.00
59961;DHT22;55902;-37.980;-63.602;2023-07-31T12:37:29;9.90;95.70
59961;DHT22;55902;-37.980;-63.602;2023-07-31T12:39:56;10.00;95.30
59961;DHT22;55902;-37.980;-63.602;2023-07-31T12:42:27;10.00;95.20
59961;DHT22;55902;-37.980;-63.602;2023-07-31T12:44:54;10.10;94.90
59961;DHT22;55902;-37.980;-63.602;2023-07-31T12:47:21;10.30;95.20
59961;DHT22;55902;-37.980;-63.602;2023-07-31T12:49:48;10.40;94.80
59961;DHT22;55902;-37.980;-63.602;2023-07-31T12:52:15;10.60;94.40
59961;DHT22;55902;-37.980;-63.602;2023-07-31T12:54:44;10.80;93.90
59961;DHT22;55902;-37.980;-63.602;2023-07-31T12:57:12;11.10;93.90
59961;DHT22;55902;-37.980;-63.602;2023-07-31T12:59:40;11.40;93.70
59961;DHT22;55902;-37.980;-63.602;2023-07-31T13:02:07;11.70;93.10
59961;DHT22;55902;-37.980;-63.602;2023-07-31T13:04:34;11.90;92.70
59961;DHT22;55902;-37.980;-63.602;2023-07-31T13:07:02;12.20;92.10
59961;DHT22;55902;-37.980;-63.602;2023-07-31T13:09:30;12.50;92.00
59961;DHT22;55902;-37.980;-63.602;2023-07-31T13:11:57;12.80;91.40
59961;DHT22;55902;-37.980;-63.602;2023-07-31T13:14:24;13.20;90.60
59961;DHT22;55902;-37.980;-63.602;2023-07-31T13:16:51;13.60;90.50
59961;DHT22;55902;-37.980;-63.602;2023-07-31T13:19:18;13.90;89.90
59961;DHT22;55902;-37.980;-63.602;2023-07-31T13:21:45;14.20;89.10
59961;DHT22;55902;-37.980;-63.602;2023-07-31T13:24:12;14.60;87.80
59961;DHT22;55902;-37.980;-63.602;2023-07-31T13:26:39;14.90;87.30
59961;DHT22;55902;-37.980;-63.602;2023-07-31T13:29:06;15.20;86.40
59961;DHT22;55902;-37.980;-63.602;2023-07-31T13:31:33;15.60;87.70
59961;DHT22;55902;-37.980;-63.602;2023-07-31T13:34:00;15.90;85.00
59961;DHT22;55902;-37.980;-63.602;2023-07-31T13:36:30;16.20;83.00
59961;DHT22;55902;-37.980;-63.602;2023-07-31T13:39:01;16.40;82.90
59961;DHT22;55902;-37.980;-63.602;2023-07-31T13:41:31;16.60;80.30
59961;DHT22;55902;-37.980;-63.602;2023-07-31T13:43:58;16.60;78.50
59961;DHT22;55902;-37.980;-63.602;2023-07-31T13:46:25;16.80;79.40
59961;DHT22;55902;-37.980;-63.602;2023-07-31T13:48:53;16.80;81.30
59961;DHT22;55902;-37.980;-63.602;2023-07-31T13:51:24;17.10;80.80
59961;DHT22;55902;-37.980;-63.602;2023-07-31T13:53:52;17.20;78.70
59961;DHT22;55902;-37.980;-63.602;2023-07-31T13:56:19;17.30;77.80
59961;DHT22;55902;-37.980;-63.602;2023-07-31T13:58:46;17.40;76.90
59961;DHT22;55902;-37.980;-63.602;2023-07-31T14:01:13;17.40;76.00
59961;DHT22;55902;-37.980;-63.602;2023-07-31T14:03:44;17.40;74.70
59961;DHT22;55902;-37.980;-63.602;2023-07-31T14:06:11;17.50;75.20
59961;DHT22;55902;-37.980;-63.602;2023-07-31T14:08:38;17.50;74.20
59961;DHT22;55902;-37.980;-63.602;2023-07-31T14:11:05;17.60;74.00
59961;DHT22;55902;-37.980;-63.602;2023-07-31T14:13:52;17.70;74.70
59961;DHT22;55902;-37.980;-63.602;2023-07-31T14:16:22;17.80;74.90
59961;DHT22;55902;-37.980;-63.602;2023-07-31T14:18:51;18.00;74.50
59961;DHT22;55902;-37.980;-63.602;2023-07-31T14:21:20;18.00;72.80
59961;DHT22;55902;-37.980;-63.602;2023-07-31T14:23:47;18.10;72.20
59961;DHT22;55902;-37.980;-63.602;2023-07-31T14:26:16;18.10;72.50
59961;DHT22;55902;-37.980;-63.602;2023-07-31T14:28:43;18.10;72.70
59961;DHT22;55902;-37.980;-63.602;2023-07-31T14:31:10;18.10;72.30
59961;DHT22;55902;-37.980;-63.602;2023-07-31T14:33:37;18.00;71.10
59961;DHT22;55902;-37.980;-63.602;2023-07-31T14:36:08;17.90;72.60
59961;DHT22;55902;-37.980;-63.602;2023-07-31T14:38:35;17.90;72.30
59961;DHT22;55902;-37.980;-63.602;2023-07-31T14:41:02;17.90;73.70
59961;DHT22;55902;-37.980;-63.602;2023-07-31T14:43:32;17.90;73.50
59961;DHT22;55902;-37.980;-63.602;2023-07-31T14:45:59;17.90;74.00
59961;DHT22;55902;-37.980;-63.602;2023-07-31T14:48:27;18.00;73.90
59961;DHT22;55902;-37.980;-63.602;2023-07-31T14:50:55;18.00;73.20
59961;DHT22;55902;-37.980;-63.602;2023-07-31T14:53:22;18.00;74.30
59961;DHT22;55902;-37.980;-63.602;2023-07-31T14:55:49;18.10;74.60
59961;DHT22;55902;-37.980;-63.602;2023-07-31T14:58:16;18.10;74.40
59961;DHT22;55902;-37.980;-63.602;2023-07-31T15:00:45;18.10;74.80
59961;DHT22;55902;-37.980;-63.602;2023-07-31T15:03:12;18.20;75.10
59961;DHT22;55902;-37.980;-63.602;2023-07-31T15:05:40;18.30;76.30
59961;DHT22;55902;-37.980;-63.602;2023-07-31T15:08:07;18.30;76.40
59961;DHT22;55902;-37.980;-63.602;2023-07-31T15:10:34;18.30;76.20
59961;DHT22;55902;-37.980;-63.602;2023-07-31T15:13:04;18.40;76.60
59961;DHT22;55902;-37.980;-63.602;2023-07-31T15:15:35;18.50;76.80
59961;DHT22;55902;-37.980;-63.602;2023-07-31T15:18:02;18.60;76.20
59961;DHT22;55902;-37.980;-63.602;2023-07-31T15:20:29;18.80;75.90
59961;DHT22;55902;-37.980;-63.602;2023-07-31T15:22:56;18.90;75.20
59961;DHT22;55902;-37.980;-63.602;2023-07-31T15:25:23;19.00;74.80
59961;DHT22;55902;-37.980;-63.602;2023-07-31T15:27:50;18.90;75.10
59961;DHT22;55902;-37.980;-63.602;2023-07-31T15:30:17;18.90;75.50
59961;DHT22;55902;-37.980;-63.602;2023-07-31T15:32:47;19.00;75.60
59961;DHT22;55902;-37.980;-63.602;2023-07-31T15:35:30;19.20;74.80
59961;DHT22;55902;-37.980;-63.602;2023-07-31T15:38:02;19.20;74.40
59961;DHT22;55902;-37.980;-63.602;2023-07-31T15:40:29;19.40;73.60
59961;DHT22;55902;-37.980;-63.602;2023-07-31T15:42:56;19.60;72.90
59961;DHT22;55902;-37.980;-63.602;2023-07-31T15:45:23;19.80;69.10
59961;DHT22;55902;-37.980;-63.602;2023-07-31T15:47:50;19.70;70.00
59961;DHT22;55902;-37.980;-63.602;2023-07-31T15:50:17;19.50;71.10
59961;DHT22;55902;-37.980;-63.602;2023-07-31T15:52:44;19.50;71.70
59961;DHT22;55902;-37.980;-63.602;2023-07-31T15:55:12;19.60;73.00